Time;durP1;ratioP1;P1;durP2;ratioP2;P2;SDS_P1;SDS_P2;PMS_P1;PMS_P2;Temp;Humidity;BMP_temperature;BMP_pressure;BME280_temperature;BME280_humidity;BME280_pressure;Samples;Min_cycle;Max_cycle;Signal;HPM_P1;HPM_P2
2021/05/14 00:09:55;;;;;;;7.93;4.67;;;;;;;11.83;55.18;97826.39;528999;1098;117061;-66
2021/05/14 00:20:00;;;;;;;7.27;4.77;;;;;;;11.70;56.17;97832.03;529725;1098;116524;-67
2021/05/14 00:30:08;;;;;;;6.37;4.67;;;;;;;11.58;56.85;97832.25;529272;1098;117030;-66
2021/05/14 00:40:14;;;;;;;7.95;4.38;;;;;;;11.45;57.61;97837.03;528956;1098;116078;-67
2021/05/14 00:50:20;;;;;;;13.43;5.57;;;;;;;11.20;58.38;97844.64;528992;1098;116877;-66
2021/05/14 01:00:25;;;;;;;5.83;4.00;;;;;;;10.93;58.73;97849.71;527080;1098;116513;-66
2021/05/14 01:10:30;;;;;;;7.50;4.20;;;;;;;10.65;59.35;97868.01;525713;1093;117362;-66
2021/05/14 01:20:35;;;;;;;6.30;4.33;;;;;;;10.41;59.76;97862.36;524816;1098;116723;-67
2021/05/14 01:30:40;;;;;;;11.50;6.37;;;;;;;10.12;60.38;97852.73;529614;1098;118151;-67
2021/05/14 01:40:46;;;;;;;8.27;5.97;;;;;;;9.89;61.33;97855.61;529023;1098;116538;-66
2021/05/14 01:50:51;;;;;;;8.50;5.43;;;;;;;9.70;61.68;97849.38;528908;1098;116280;-66
2021/05/14 02:00:56;;;;;;;10.67;5.90;;;;;;;9.59;61.97;97850.34;529029;1097;116065;-66
2021/05/14 02:11:02;;;;;;;7.93;4.50;;;;;;;9.45;62.27;97853.31;529759;1098;116149;-66
2021/05/14 02:21:08;;;;;;;5.67;4.47;;;;;;;9.31;62.87;97851.92;529810;1098;117094;-67
2021/05/14 02:31:13;;;;;;;14.07;6.30;;;;;;;9.18;63.03;97852.98;529044;1098;116254;-66
2021/05/14 02:41:18;;;;;;;9.97;6.60;;;;;;;9.09;63.72;97864.24;529057;1098;116754;-66
2021/05/14 02:51:23;;;;;;;12.17;6.50;;;;;;;8.88;63.98;97875.58;527536;1098;116278;-66
2021/05/14 03:01:28;;;;;;;9.05;7.68;;;;;;;8.67;64.63;97884.27;528870;1098;116481;-67
2021/05/14 03:11:33;;;;;;;17.30;12.60;;;;;;;8.71;66.61;97899.70;529016;1098;116219;-67
2021/05/14 03:21:38;;;;;;;16.00;12.20;;;;;;;8.92;67.48;97920.65;529740;1098;116254;-66
2021/05/14 03:31:43;;;;;;;20.23;15.73;;;;;;;9.15;68.66;97926.55;529002;1098;117604;-66
2021/05/14 03:41:50;;;;;;;25.00;19.03;;;;;;;9.37;70.80;97922.09;528956;1098;115904;-66
2021/05/14 03:51:56;;;;;;;36.87;21.77;;;;;;;9.64;70.83;97934.61;529034;1098;117258;-66
2021/05/14 04:02:02;;;;;;;31.80;21.73;;;;;;;10.04;71.50;97943.39;529653;1098;116602;-66
2021/05/14 04:12:15;;;;;;;30.00;22.53;;;;;;;10.44;71.90;97949.53;529738;1098;116874;-67
2021/05/14 04:22:20;;;;;;;36.80;27.73;;;;;;;10.88;71.43;97950.89;528980;1098;116591;-68
2021/05/14 04:32:25;;;;;;;34.43;27.10;;;;;;;11.28;71.18;97951.63;528915;1098;117244;-67
2021/05/14 04:42:30;;;;;;;31.40;25.23;;;;;;;11.35;71.82;97963.20;529778;1098;116342;-67
2021/05/14 04:52:36;;;;;;;34.43;26.00;;;;;;;11.82;71.07;97954.44;529022;1098;117237;-68
2021/05/14 05:02:41;;;;;;;36.33;27.97;;;;;;;12.44;70.46;97960.86;528996;1098;117712;-68
2021/05/14 05:12:46;;;;;;;30.70;24.87;;;;;;;12.90;69.32;97952.82;529805;1098;117808;-68
2021/05/14 05:22:51;;;;;;;29.40;23.43;;;;;;;13.14;68.87;97953.97;528977;1098;118546;-68
2021/05/14 05:32:56;;;;;;;34.50;25.30;;;;;;;13.49;68.18;97962.76;528996;1098;116999;-67
2021/05/14 05:43:01;;;;;;;32.67;21.67;;;;;;;13.53;67.55;97966.75;528986;1097;116958;-66
2021/05/14 05:53:07;;;;;;;27.50;21.93;;;;;;;13.80;66.51;97975.44;528968;1098;118750;-65
2021/05/14 06:03:14;;;;;;;23.30;20.03;;;;;;;14.00;65.94;97986.55;529618;1098;118343;-68
2021/05/14 06:13:19;;;;;;;24.10;19.37;;;;;;;14.90;65.66;97993.98;528971;1098;117382;-67
2021/05/14 06:23:24;;;;;;;24.50;17.98;;;;;;;17.71;62.60;97994.25;528905;1098;116653;-66
2021/05/14 06:33:29;;;;;;;20.25;16.15;;;;;;;21.78;55.96;97999.75;529736;1098;116823;-63
2021/05/14 06:43:34;;;;;;;16.98;15.23;;;;;;;20.91;52.04;98012.14;528922;1098;116895;-66
2021/05/14 06:53:40;;;;;;;17.20;15.50;;;;;;;18.59;53.38;98035.98;528883;1098;116248;-66
2021/05/14 07:03:45;;;;;;;22.93;17.90;;;;;;;18.33;53.43;98025.88;529676;1098;117786;-64
2021/05/14 07:13:50;;;;;;;19.97;16.60;;;;;;;18.20;54.64;98037.16;528997;1098;116686;-64
2021/05/14 07:23:55;;;;;;;19.37;17.27;;;;;;;17.38;54.72;98046.85;529043;1098;117922;-62
2021/05/14 07:34:01;;;;;;;21.57;16.07;;;;;;;17.83;55.11;98045.03;528976;1098;117403;-59
2021/05/14 07:44:07;;;;;;;19.30;16.77;;;;;;;18.84;53.45;98046.25;528963;1098;116975;-67
2021/05/14 07:54:12;;;;;;;22.28;15.85;;;;;;;19.48;52.84;98057.03;520751;1098;10001724;-68
2021/05/14 08:04:17;;;;;;;23.65;16.43;;;;;;;19.99;51.08;98071.09;528918;1098;117465;-64
2021/05/14 08:14:22;;;;;;;17.03;15.07;;;;;;;19.76;51.09;98072.16;528894;1097;116500;-67
2021/05/14 08:24:27;;;;;;;17.87;16.10;;;;;;;19.65;50.55;98086.01;529581;1098;116378;-65
2021/05/14 08:34:32;;;;;;;18.80;16.20;;;;;;;19.06;51.34;98096.81;528901;1098;116609;-65
2021/05/14 08:44:37;;;;;;;24.87;17.73;;;;;;;18.96;51.01;98102.39;528987;1098;117348;-62
2021/05/14 08:54:45;;;;;;;19.10;16.67;;;;;;;19.23;50.91;98109.84;529767;1098;116384;-62
2021/05/14 09:04:50;;;;;;;21.73;16.67;;;;;;;19.07;50.80;98111.75;528974;1098;116739;-62
2021/05/14 09:14:55;;;;;;;17.23;14.33;;;;;;;21.53;49.72;98116.05;528918;1098;116340;-61
2021/05/14 09:25:02;;;;;;;16.60;14.83;;;;;;;22.70;46.02;98118.28;528909;1098;117088;-62
2021/05/14 09:35:09;;;;;;;20.13;15.03;;;;;;;22.09;45.04;98119.27;529032;1098;118006;-63
2021/05/14 09:45:20;;;;;;;16.55;14.95;;;;;;;22.06;45.33;98134.92;529688;1098;116259;-61
2021/05/14 09:55:26;;;;;;;19.83;17.07;;;;;;;22.43;45.20;98143.25;528967;1098;117470;-59
2021/05/14 10:05:34;;;;;;;16.90;14.60;;;;;;;21.56;44.49;98146.84;528979;1098;116906;-60
2021/05/14 10:15:40;;;;;;;16.60;12.23;;;;;;;21.65;45.13;98158.16;529691;1098;116810;-62
2021/05/14 10:25:48;;;;;;;14.87;13.33;;;;;;;21.79;45.02;98162.50;528973;1098;116630;-60
2021/05/14 10:35:53;;;;;;;15.65;13.95;;;;;;;21.18;45.62;98166.11;528998;1098;117539;-65
2021/05/14 10:46:03;;;;;;;17.53;15.67;;;;;;;21.22;45.67;98176.19;528988;1098;117560;-59
2021/05/14 10:56:51;;;;;;;14.95;12.35;;;;;;;20.59;45.69;98171.83;528964;1098;116820;-59
2021/05/14 11:06:55;;;;;;;15.38;11.25;;;;;;;20.14;47.17;98178.38;528702;1098;117615;-58
2021/05/14 11:17:08;;;;;;;16.70;13.50;;;;;;;19.94;48.40;98185.41;529700;1098;116755;-59
2021/05/14 11:27:15;;;;;;;17.03;13.50;;;;;;;20.23;47.77;98199.53;529655;1098;117157;-58
2021/05/14 11:37:21;;;;;;;13.47;11.60;;;;;;;19.89;48.10;98207.27;528950;1098;116943;-60
2021/05/14 11:47:26;;;;;;;19.43;13.40;;;;;;;20.26;47.42;98201.83;528971;1098;117021;-62
2021/05/14 11:57:31;;;;;;;14.73;11.30;;;;;;;19.76;47.32;98218.62;529719;1098;116749;-61
2021/05/14 12:07:37;;;;;;;10.73;9.57;;;;;;;19.85;46.08;98220.14;528995;1098;117469;-62
2021/05/14 12:17:43;;;;;;;16.47;9.30;;;;;;;19.89;46.82;98236.56;529014;1098;118722;-61
2021/05/14 12:27:48;;;;;;;12.60;9.97;;;;;;;19.28;48.34;98245.81;529737;1098;117852;-61
2021/05/14 12:37:57;;;;;;;12.13;9.83;;;;;;;19.11;49.28;98253.20;528943;1098;117288;-61
2021/05/14 12:48:02;;;;;;;14.33;11.23;;;;;;;18.70;48.93;98243.83;528875;1098;116794;-61
2021/05/14 12:58:07;;;;;;;11.00;9.90;;;;;;;19.06;49.55;98268.88;529016;1098;118063;-62
2021/05/14 13:08:13;;;;;;;10.47;9.40;;;;;;;19.51;49.33;98282.06;528994;1098;117619;-61
2021/05/14 13:18:25;;;;;;;12.87;11.23;;;;;;;19.21;49.62;98276.83;529720;1098;116613;-60
2021/05/14 13:28:30;;;;;;;12.43;10.67;;;;;;;18.16;50.57;98293.55;528912;1098;117154;-61
2021/05/14 13:38:35;;;;;;;13.20;11.83;;;;;;;18.01;51.06;98302.28;528971;1098;117598;-62
2021/05/14 13:48:40;;;;;;;13.90;12.13;;;;;;;17.82;51.98;98316.83;529550;1098;116776;-62
2021/05/14 13:58:46;;;;;;;10.43;9.33;;;;;;;18.01;51.71;98312.90;528962;1098;116341;-61
2021/05/14 14:08:51;;;;;;;11.60;9.07;;;;;;;18.25;51.86;98324.36;529041;1098;116937;-61
2021/05/14 14:18:56;;;;;;;9.58;8.53;;;;;;;18.53;51.57;98330.93;511074;1098;20002466;-62
2021/05/14 14:29:02;;;;;;;10.40;9.27;;;;;;;18.26;52.44;98330.48;529724;1098;117338;-63
2021/05/14 14:39:08;;;;;;;10.53;9.43;;;;;;;17.67;53.20;98339.84;525825;1098;117056;-64
2021/05/14 14:49:13;;;;;;;9.05;8.25;;;;;;;18.18;52.92;98326.91;520511;1098;117254;-62
2021/05/14 14:59:18;;;;;;;10.28;8.83;;;;;;;18.08;52.79;98336.11;528913;1098;116194;-62
2021/05/14 15:09:23;;;;;;;12.13;8.97;;;;;;;17.69;53.40;98338.67;529695;1098;118358;-64
2021/05/14 15:19:28;;;;;;;9.57;8.57;;;;;;;17.55;53.99;98344.73;529000;1098;118505;-63
2021/05/14 15:29:33;;;;;;;8.10;7.27;;;;;;;17.47;53.75;98338.45;528929;1098;116840;-64
2021/05/14 15:39:39;;;;;;;7.93;7.13;;;;;;;17.23;54.12;98355.30;529654;1098;116587;-63
2021/05/14 15:49:44;;;;;;;8.90;6.78;;;;;;;16.97;54.26;98358.16;516303;1098;117263;-65
2021/05/14 15:59:49;;;;;;;7.23;6.43;;;;;;;16.83;54.91;98357.87;510430;1098;10001767;-61
2021/05/14 16:09:54;;;;;;;8.65;7.90;;;;;;;16.63;55.21;98360.06;511703;1093;117125;-61
2021/05/14 16:19:59;;;;;;;13.08;8.15;;;;;;;16.24;56.09;98372.16;527787;1098;116412;-63
2021/05/14 16:30:04;;;;;;;9.63;8.73;;;;;;;16.13;56.48;98375.98;527237;1098;116874;-60
2021/05/14 16:40:12;;;;;;;7.33;6.73;;;;;;;16.01;56.55;98385.23;528993;1097;117072;-61
2021/05/14 16:50:20;;;;;;;8.38;7.48;;;;;;;15.89;56.66;98379.38;529049;1098;116666;-60
2021/05/14 17:00:26;;;;;;;7.63;6.83;;;;;;;15.62;58.02;98383.95;526655;1092;116687;-61
2021/05/14 17:10:31;;;;;;;7.87;7.17;;;;;;;15.30;58.48;98385.47;529057;1092;115845;-61
2021/05/14 17:20:37;;;;;;;11.73;7.97;;;;;;;15.12;58.68;98396.94;526853;1098;116711;-61
2021/05/14 17:30:42;;;;;;;9.27;8.23;;;;;;;14.96;59.29;98405.64;527043;1098;116515;-63
2021/05/14 17:40:47;;;;;;;11.07;7.63;;;;;;;14.63;59.81;98423.87;529021;1098;117564;-62
2021/05/14 17:50:52;;;;;;;8.10;7.37;;;;;;;14.37;60.06;98436.03;514863;1094;116825;-62
2021/05/14 18:01:02;;;;;;;10.93;9.33;;;;;;;14.09;60.94;98451.09;523938;1098;118916;-61
2021/05/14 18:11:07;;;;;;;12.00;9.15;;;;;;;13.89;61.55;98461.77;525283;1098;117285;-61
2021/05/14 18:21:12;;;;;;;9.37;8.47;;;;;;;13.80;62.13;98481.14;529517;1098;117511;-61
2021/05/14 18:31:17;;;;;;;8.50;7.57;;;;;;;13.49;62.48;98495.40;528990;1097;116698;-62
2021/05/14 18:41:23;;;;;;;6.33;5.83;;;;;;;13.42;62.81;98499.58;528996;1097;117336;-61
2021/05/14 18:51:28;;;;;;;8.97;7.33;;;;;;;13.20;63.41;98513.91;529647;1097;117115;-60
2021/05/14 19:01:33;;;;;;;9.00;7.53;;;;;;;13.05;64.05;98524.08;528944;1098;116381;-64
2021/05/14 19:11:38;;;;;;;10.97;8.37;;;;;;;12.86;64.88;98546.81;528960;1098;117034;-61
2021/05/14 19:21:46;;;;;;;10.47;7.83;;;;;;;12.80;65.27;98542.94;529694;1098;116526;-61
2021/05/14 19:42:51;;;;;;;10.03;7.93;;;;;;;12.79;65.33;98567.62;529455;1098;117404;-62
2021/05/14 19:52:57;;;;;;;9.07;7.60;;;;;;;12.71;66.22;98578.84;529614;1098;117239;-62
2021/05/14 20:03:03;;;;;;;8.37;7.47;;;;;;;12.69;66.53;98588.66;527581;1098;116508;-61
2021/05/14 20:13:10;;;;;;;9.03;7.43;;;;;;;12.67;66.89;98603.77;529026;1098;117793;-61
2021/05/14 20:23:15;;;;;;;10.97;8.00;;;;;;;12.64;67.10;98606.69;529014;1098;116092;-62
2021/05/14 20:33:20;;;;;;;9.77;8.43;;;;;;;12.63;67.27;98614.71;529681;1098;117356;-61
2021/05/14 20:43:26;;;;;;;8.37;7.57;;;;;;;12.56;67.64;98617.90;528851;1098;168937;-59
2021/05/14 20:53:32;;;;;;;6.20;5.60;;;;;;;12.47;67.16;98613.44;528984;1098;115921;-65
2021/05/14 21:03:37;;;;;;;5.90;5.30;;;;;;;12.38;67.02;98622.13;529750;1098;116493;-65
2021/05/14 21:13:42;;;;;;;6.10;5.50;;;;;;;12.26;67.23;98624.05;527602;1093;116561;-65
2021/05/14 21:23:47;;;;;;;6.53;5.80;;;;;;;12.19;67.56;98618.48;512186;1098;117583;-66
2021/05/14 21:33:52;;;;;;;8.00;6.27;;;;;;;12.16;67.59;98616.95;515082;1098;117693;-65
2021/05/14 21:43:56;;;;;;;7.27;6.07;;;;;;;12.08;67.44;98610.69;523562;1098;151947;-64
2021/05/14 21:53:59;;;;;;;6.27;5.70;;;;;;;12.13;67.45;98617.22;513742;1098;116306;-65
2021/05/14 22:04:04;;;;;;;6.80;6.20;;;;;;;12.10;67.90;98620.09;515651;1098;117433;-65
2021/05/14 22:14:07;;;;;;;6.10;5.07;;;;;;;12.09;68.50;98620.25;515351;1098;116864;-64
2021/05/14 22:24:12;;;;;;;5.90;5.30;;;;;;;12.07;68.09;98617.73;523022;1094;115884;-64
2021/05/14 22:34:18;;;;;;;8.20;6.07;;;;;;;12.00;68.52;98617.40;515918;1098;115971;-65
2021/05/14 22:44:21;;;;;;;6.47;4.80;;;;;;;12.03;68.34;98632.95;523787;1098;116461;-66
2021/05/14 22:54:26;;;;;;;5.00;4.50;;;;;;;12.00;68.64;98629.70;522668;1098;117116;-65
2021/05/14 23:04:30;;;;;;;4.95;4.43;;;;;;;11.91;68.79;98637.44;516604;1098;116443;-65
2021/05/14 23:14:34;;;;;;;5.97;4.47;;;;;;;11.87;68.44;98622.86;517415;1098;116423;-66
2021/05/14 23:24:37;;;;;;;5.43;4.73;;;;;;;11.89;68.52;98628.85;517020;1098;116528;-66
2021/05/14 23:34:42;;;;;;;5.03;4.40;;;;;;;11.86;68.67;98629.09;514936;1097;116077;-65
2021/05/14 23:44:48;;;;;;;7.17;3.93;;;;;;;11.77;69.03;98625.45;528951;1098;119514;-65
2021/05/14 23:54:52;;;;;;;6.03;4.83;;;;;;;11.74;68.45;98623.09;529626;1098;119900;-65
